Time;durP1;ratioP1;P1;durP2;ratioP2;P2;SDS_P1;SDS_P2;PMS_P1;PMS_P2;Temp;Humidity;BMP_temperature;BMP_pressure;BME280_temperature;BME280_humidity;BME280_pressure;Samples;Min_cycle;Max_cycle;Signal;HPM_P1;HPM_P2
2021/12/20 00:01:23;;;;;;;21.40;3.42;;;;;;;7.07;83.52;102883.09;5096981;28;20028;-74
2021/12/20 00:03:48;;;;;;;18.40;3.03;;;;;;;7.08;84.05;102887.28;5095567;28;20524;-74
2021/12/20 00:06:13;;;;;;;12.65;2.58;;;;;;;7.07;85.38;102886.47;5078508;28;20032;-74
2021/12/20 00:08:39;;;;;;;16.85;2.58;;;;;;;7.06;85.76;102892.56;5095721;28;20066;-74
2021/12/20 00:11:04;;;;;;;18.58;2.55;;;;;;;6.98;84.89;102879.44;5078453;28;20036;-73
2021/12/20 00:13:30;;;;;;;17.75;2.65;;;;;;;6.87;85.29;102876.84;5078426;28;20107;-75
2021/12/20 00:15:55;;;;;;;17.58;2.78;;;;;;;6.89;85.45;102880.13;5095270;28;20028;-75
2021/12/20 00:18:21;;;;;;;20.60;2.80;;;;;;;6.96;84.00;102882.16;5095155;28;20020;-74
2021/12/20 00:20:46;;;;;;;15.00;2.60;;;;;;;6.94;84.12;102872.91;5096420;28;20020;-74
2021/12/20 00:23:12;;;;;;;19.05;2.72;;;;;;;7.00;84.48;102877.59;5096444;28;20102;-73
2021/12/20 00:25:37;;;;;;;19.90;3.45;;;;;;;6.96;84.06;102877.00;5095116;28;20027;-74
2021/12/20 00:28:03;;;;;;;18.00;2.78;;;;;;;7.03;83.33;102882.50;5096248;28;20042;-74
2021/12/20 00:30:28;;;;;;;19.83;2.90;;;;;;;7.13;82.49;102874.94;5094997;28;20024;-75
2021/12/20 00:32:54;;;;;;;19.00;2.90;;;;;;;7.01;85.06;102874.91;5096253;28;20527;-75
2021/12/20 00:35:24;;;;;;;29.13;3.38;;;;;;;6.93;83.28;102861.81;5096473;28;20542;-74
2021/12/20 00:40:33;;;;;;;23.15;2.72;;;;;;;6.96;83.20;102873.59;5096221;28;20528;-73
2021/12/20 00:43:00;;;;;;;21.35;3.13;;;;;;;6.98;81.40;102875.13;5095996;28;20020;-74
2021/12/20 00:45:30;;;;;;;20.30;4.15;;;;;;;7.05;83.09;102869.53;5094655;28;20032;-74
2021/12/20 00:47:55;;;;;;;24.95;4.53;;;;;;;7.05;82.83;102872.09;5094630;28;20077;-73
2021/12/20 00:50:23;;;;;;;22.73;3.00;;;;;;;6.92;83.32;102870.44;5095760;28;20032;-74
2021/12/20 00:52:50;;;;;;;17.60;2.90;;;;;;;6.93;85.22;102868.69;5094508;28;20462;-74
2021/12/20 00:55:17;;;;;;;26.42;2.92;;;;;;;6.94;84.16;102868.56;5094478;28;20023;-74
2021/12/20 00:57:47;;;;;;;24.38;3.28;;;;;;;6.83;84.11;102852.31;5077700;28;20162;-75
2021/12/20 01:00:15;;;;;;;20.23;2.78;;;;;;;6.86;85.63;102855.47;5094315;28;20035;-73
2021/12/20 01:02:41;;;;;;;23.10;3.25;;;;;;;6.86;83.76;102860.59;5095637;28;20481;-73
2021/12/20 01:05:06;;;;;;;19.08;3.10;;;;;;;6.94;83.48;102866.00;5095572;28;20020;-74
2021/12/20 01:07:32;;;;;;;22.90;2.88;;;;;;;6.89;83.24;102865.50;5094304;28;20039;-74
2021/12/20 01:09:59;;;;;;;19.50;2.80;;;;;;;6.94;84.06;102870.34;5094234;28;20513;-75
2021/12/20 01:12:30;;;;;;;21.55;2.97;;;;;;;6.96;84.08;102868.44;5093106;28;20037;-74
2021/12/20 01:14:59;;;;;;;21.13;3.22;;;;;;;6.99;83.05;102863.09;5094841;28;20020;-75
2021/12/20 01:17:25;;;;;;;22.60;2.83;;;;;;;6.89;83.80;102860.38;5095340;28;20047;-74
2021/12/20 01:19:50;;;;;;;18.75;2.92;;;;;;;6.88;83.32;102871.59;5095205;28;20067;-75
2021/12/20 01:22:16;;;;;;;33.35;3.63;;;;;;;6.94;83.17;102867.75;5093876;28;20019;-73
2021/12/20 01:24:42;;;;;;;24.55;3.20;;;;;;;6.99;82.61;102870.78;5095149;28;20102;-73
2021/12/20 01:27:07;;;;;;;27.48;3.78;;;;;;;6.95;82.85;102867.63;5095106;28;20107;-74
2021/12/20 01:29:32;;;;;;;20.83;2.90;;;;;;;6.91;83.55;102865.41;5095057;28;20515;-75
2021/12/20 01:31:57;;;;;;;16.92;3.40;;;;;;;6.91;83.95;102871.38;5093692;28;20020;-74
2021/12/20 01:34:23;;;;;;;19.42;3.22;;;;;;;7.01;81.90;102868.94;5094752;28;20028;-73
2021/12/20 01:36:48;;;;;;;25.05;3.13;;;;;;;6.95;83.28;102867.63;5093617;28;20481;-74
2021/12/20 01:39:13;;;;;;;26.30;2.75;;;;;;;6.81;83.91;102861.88;5094794;28;20085;-75
2021/12/20 01:41:41;;;;;;;21.40;3.17;;;;;;;6.74;84.81;102870.00;5094561;28;20052;-74
2021/12/20 01:44:08;;;;;;;31.08;3.40;;;;;;;6.80;83.49;102860.22;5095322;28;20035;-73
2021/12/20 01:46:33;;;;;;;18.65;2.80;;;;;;;6.92;81.72;102854.19;5093471;28;20038;-75
2021/12/20 01:49:00;;;;;;;19.38;2.47;;;;;;;6.80;81.24;102853.34;5076348;28;20024;-74
2021/12/20 01:54:04;;;;;;;21.73;2.83;;;;;;;6.87;82.95;102857.09;5094940;28;20046;-73
2021/12/20 01:56:31;;;;;;;26.38;3.05;;;;;;;6.75;84.78;102848.53;5094387;28;20023;-74
2021/12/20 01:59:04;;;;;;;23.40;2.55;;;;;;;6.71;83.98;102856.59;5094432;28;20109;-76
2021/12/20 02:01:29;;;;;;;26.98;3.15;;;;;;;6.75;84.94;102856.22;5093075;28;20028;-74
2021/12/20 02:03:59;;;;;;;26.20;3.88;;;;;;;6.70;84.32;102853.19;5093149;28;20027;-74
2021/12/20 02:06:38;;;;;;;20.58;2.72;;;;;;;6.74;84.25;102846.91;5092957;28;20051;-74
2021/12/20 02:09:07;;;;;;;30.27;3.70;;;;;;;6.77;84.57;102859.50;5093020;28;20023;-74
2021/12/20 02:11:33;;;;;;;22.90;3.13;;;;;;;6.82;84.80;102853.22;5092979;28;20443;-74
2021/12/20 02:13:58;;;;;;;23.08;3.30;;;;;;;6.84;84.61;102861.63;5092936;28;20028;-74
2021/12/20 02:16:24;;;;;;;19.60;2.63;;;;;;;6.83;84.52;102849.72;5092880;28;20387;-75
2021/12/20 02:18:50;;;;;;;28.40;3.45;;;;;;;6.78;83.37;102856.00;5093992;28;20031;-73
2021/12/20 02:21:16;;;;;;;18.50;2.85;;;;;;;6.78;83.49;102855.19;5059603;28;20386;-73
2021/12/20 02:23:41;;;;;;;24.35;3.15;;;;;;;6.83;84.24;102860.81;5094298;28;20027;-74
2021/12/20 02:26:07;;;;;;;21.25;3.10;;;;;;;6.84;83.84;102854.75;5093959;28;20499;-74
2021/12/20 02:28:37;;;;;;;16.25;2.65;;;;;;;6.74;85.23;102854.59;5094188;28;20026;-74
2021/12/20 02:39:07;;;;;;;26.63;2.90;;;;;;;6.72;84.57;102843.59;5094316;28;20070;-73
2021/12/20 02:41:33;;;;;;;22.95;3.00;;;;;;;6.65;83.10;102844.19;5093595;28;20071;-73
2021/12/20 02:44:05;;;;;;;26.13;3.13;;;;;;;6.78;83.27;102845.72;5093788;28;20031;-74
2021/12/20 02:49:13;;;;;;;21.98;2.50;;;;;;;6.75;86.28;102840.00;5094014;28;20035;-73
2021/12/20 02:51:39;;;;;;;25.63;3.50;;;;;;;6.64;85.45;102827.91;5092390;28;20024;-74
2021/12/20 02:54:06;;;;;;;20.85;2.80;;;;;;;6.61;85.64;102833.28;5093709;28;20024;-73
2021/12/20 02:56:32;;;;;;;30.60;4.22;;;;;;;6.61;84.23;102825.56;5093853;28;20427;-73
2021/12/20 02:58:57;;;;;;;22.85;3.33;;;;;;;6.60;83.34;102830.84;5092260;28;20108;-73
2021/12/20 03:01:23;;;;;;;22.33;3.53;;;;;;;6.68;84.40;102831.09;5092271;28;20036;-74
2021/12/20 03:03:50;;;;;;;21.60;3.08;;;;;;;6.67;85.45;102840.53;5092270;28;20432;-74
2021/12/20 03:06:26;;;;;;;22.55;3.20;;;;;;;6.66;86.99;102827.81;5092250;28;20020;-73
2021/12/20 03:08:57;;;;;;;20.92;2.85;;;;;;;6.70;86.57;102830.06;5093830;28;20044;-72
2021/12/20 03:11:25;;;;;;;26.73;3.22;;;;;;;6.63;85.23;102839.13;5092213;28;20500;-73
2021/12/20 03:13:56;;;;;;;19.20;2.78;;;;;;;6.62;85.58;102837.50;5093430;28;20016;-74
2021/12/20 03:16:21;;;;;;;23.30;3.35;;;;;;;6.64;85.01;102832.25;5093538;28;20031;-73
2021/12/20 03:18:47;;;;;;;21.10;2.97;;;;;;;6.53;84.85;102833.84;5093303;28;20017;-74
2021/12/20 03:21:12;;;;;;;25.67;3.42;;;;;;;6.52;85.02;102836.50;5092186;28;20128;-73
2021/12/20 03:23:38;;;;;;;24.30;2.85;;;;;;;6.57;84.75;102839.56;5092056;28;20024;-73
2021/12/20 03:26:03;;;;;;;21.10;2.83;;;;;;;6.53;86.03;102827.88;5092072;28;20044;-73
2021/12/20 03:28:28;;;;;;;28.35;3.30;;;;;;;6.51;85.86;102829.75;5093558;28;20052;-75
2021/12/20 03:30:54;;;;;;;17.50;2.67;;;;;;;6.47;82.61;102824.03;5093338;28;20031;-73
2021/12/20 03:33:19;;;;;;;14.80;2.75;;;;;;;6.60;78.19;102828.28;5093279;28;20520;-75
2021/12/20 03:35:44;;;;;;;23.15;3.10;;;;;;;6.71;77.51;102836.03;5094770;28;20020;-74
2021/12/20 03:38:10;;;;;;;18.23;2.50;;;;;;;6.62;76.93;102829.81;5097366;28;20111;-75
2021/12/20 03:40:37;;;;;;;20.73;2.50;;;;;;;6.68;77.70;102831.09;5095740;28;20482;-73
2021/12/20 03:43:03;;;;;;;17.83;2.97;;;;;;;6.69;78.55;102828.41;5097179;28;20381;-74
2021/12/20 03:45:28;;;;;;;20.63;2.65;;;;;;;6.66;80.27;102833.78;5095748;28;20020;-74
2021/12/20 03:47:53;;;;;;;15.85;3.05;;;;;;;6.66;80.41;102833.78;5095782;28;20028;-73
2021/12/20 03:50:20;;;;;;;20.25;2.85;;;;;;;6.66;82.96;102833.78;5095692;28;20020;-74
2021/12/20 03:52:45;;;;;;;14.93;2.05;;;;;;;6.65;81.64;102837.28;5096978;28;20102;-74
2021/12/20 03:55:12;;;;;;;13.50;2.65;;;;;;;6.61;82.17;102829.91;5095699;28;20036;-74
2021/12/20 03:57:38;;;;;;;22.88;3.72;;;;;;;6.57;81.24;102819.03;5097593;28;20042;-73
2021/12/20 04:00:06;;;;;;;15.77;2.60;;;;;;;6.53;80.86;102822.72;5096763;28;20111;-74
2021/12/20 04:02:38;;;;;;;21.83;3.00;;;;;;;6.67;78.99;102830.25;5096659;28;20024;-74
2021/12/20 04:05:05;;;;;;;21.38;3.22;;;;;;;6.66;81.18;102825.25;5095482;28;20024;-74
2021/12/20 04:07:30;;;;;;;24.55;3.20;;;;;;;6.54;81.64;102822.63;5096600;28;20051;-74
2021/12/20 04:09:56;;;;;;;17.70;2.42;;;;;;;6.50;80.39;102831.50;5095348;28;20024;-73
2021/12/20 04:12:21;;;;;;;15.52;2.33;;;;;;;6.53;80.44;102823.56;5095260;28;20470;-73
2021/12/20 04:14:46;;;;;;;16.63;2.88;;;;;;;6.55;79.73;102831.16;5078542;28;20035;-74
2021/12/20 04:17:11;;;;;;;19.48;3.10;;;;;;;6.54;81.96;102824.38;5095136;28;20027;-74
2021/12/20 04:19:37;;;;;;;18.20;2.50;;;;;;;6.51;83.85;102824.59;5096266;28;20161;-74
2021/12/20 04:22:02;;;;;;;15.38;2.30;;;;;;;6.45;84.98;102827.63;5095394;28;20394;-74
2021/12/20 04:24:28;;;;;;;20.10;2.75;;;;;;;6.52;84.06;102829.63;5095043;28;20028;-73
2021/12/20 04:26:53;;;;;;;20.30;2.58;;;;;;;6.55;83.15;102836.28;5096282;28;20024;-74
2021/12/20 04:29:19;;;;;;;16.13;2.38;;;;;;;6.58;82.83;102837.81;5094807;28;20016;-74
2021/12/20 04:31:45;;;;;;;25.35;2.90;;;;;;;6.52;82.17;102828.81;5094877;28;20425;-75
2021/12/20 04:34:10;;;;;;;22.35;2.60;;;;;;;6.54;82.62;102832.09;5096374;28;20047;-74
2021/12/20 04:36:36;;;;;;;22.08;3.03;;;;;;;6.52;83.00;102831.38;5096090;28;20027;-73
2021/12/20 04:39:02;;;;;;;27.35;3.50;;;;;;;6.48;82.33;102833.34;5095916;28;20020;-74
2021/12/20 04:41:27;;;;;;;22.90;2.60;;;;;;;6.46;81.97;102831.81;5094691;28;20448;-73
2021/12/20 04:43:52;;;;;;;20.48;2.80;;;;;;;6.57;79.88;102831.06;5094703;28;20028;-73
2021/12/20 04:46:18;;;;;;;19.98;2.50;;;;;;;6.52;79.52;102828.81;5094592;28;20063;-73
2021/12/20 04:48:43;;;;;;;15.40;2.97;;;;;;;6.49;82.07;102826.47;5095827;28;20458;-74
2021/12/20 04:51:08;;;;;;;16.33;3.08;;;;;;;6.46;80.98;102824.13;5095777;28;20028;-74
2021/12/20 04:53:34;;;;;;;17.70;3.00;;;;;;;6.47;80.37;102826.59;5095772;28;20481;-75
2021/12/20 04:55:59;;;;;;;19.83;2.60;;;;;;;6.60;79.97;102825.69;5094407;28;20413;-74
2021/12/20 04:58:24;;;;;;;19.33;2.95;;;;;;;6.64;80.70;102838.19;5096154;28;20119;-74
2021/12/20 05:00:50;;;;;;;18.40;2.50;;;;;;;6.58;81.17;102835.25;5095653;28;20031;-73
2021/12/20 05:03:15;;;;;;;28.75;2.92;;;;;;;6.47;79.98;102829.16;5094235;28;20030;-74
2021/12/20 05:05:40;;;;;;;26.67;3.28;;;;;;;6.55;78.92;102829.41;5096132;28;20024;-73
2021/12/20 05:08:06;;;;;;;21.48;3.00;;;;;;;6.52;81.68;102829.63;5094238;28;20016;-72
2021/12/20 05:10:37;;;;;;;17.88;3.28;;;;;;;6.57;78.92;102831.88;5095464;28;20104;-74
2021/12/20 05:13:06;;;;;;;17.73;3.22;;;;;;;6.60;81.39;102829.09;5095694;28;20051;-73
2021/12/20 05:15:32;;;;;;;15.45;2.35;;;;;;;6.57;78.37;102831.06;5094174;28;20494;-74
2021/12/20 05:17:58;;;;;;;16.92;2.60;;;;;;;6.59;80.23;102830.03;5094027;28;20088;-73
2021/12/20 05:20:24;;;;;;;18.38;2.45;;;;;;;6.49;80.81;102829.03;5095277;28;20032;-73
2021/12/20 05:22:50;;;;;;;18.83;2.70;;;;;;;6.43;78.43;102832.84;5094003;28;20523;-75
2021/12/20 05:25:16;;;;;;;22.70;2.92;;;;;;;6.48;77.02;102830.78;5095191;28;20474;-74
2021/12/20 05:27:41;;;;;;;13.27;2.35;;;;;;;6.39;74.48;102836.59;5095106;28;20023;-73
2021/12/20 05:30:09;;;;;;;12.48;2.08;;;;;;;6.45;74.55;102840.47;5095087;28;20031;-73
2021/12/20 05:32:35;;;;;;;10.48;1.77;;;;;;;6.45;78.53;102843.03;5093905;28;20114;-74
2021/12/20 05:35:00;;;;;;;13.75;2.13;;;;;;;6.36;75.84;102838.53;5093649;28;20028;-73
2021/12/20 05:37:26;;;;;;;17.52;2.42;;;;;;;6.50;75.19;102843.50;5094938;28;20035;-73
2021/12/20 05:39:52;;;;;;;8.15;1.88;;;;;;;6.48;75.25;102853.09;5094682;28;20054;-74
2021/12/20 05:42:17;;;;;;;11.75;2.20;;;;;;;6.47;76.36;102851.44;5095339;28;20056;-74
2021/12/20 05:44:43;;;;;;;13.18;1.98;;;;;;;6.46;78.21;102857.50;5093564;28;20024;-73
2021/12/20 05:47:08;;;;;;;17.10;3.30;;;;;;;6.44;77.38;102846.50;5093421;28;20221;-74
2021/12/20 05:49:34;;;;;;;9.40;1.60;;;;;;;6.27;73.82;102848.53;5093396;28;20016;-74
2021/12/20 05:52:00;;;;;;;12.88;1.70;;;;;;;6.24;74.74;102850.47;5076507;28;20118;-72
2021/12/20 05:54:25;;;;;;;12.13;1.80;;;;;;;6.25;74.73;102860.66;5093387;28;20032;-74
2021/12/20 05:56:51;;;;;;;11.27;1.73;;;;;;;6.24;74.94;102847.91;5092888;28;20077;-72
2021/12/20 05:59:16;;;;;;;11.40;1.90;;;;;;;6.08;77.87;102835.34;5094804;28;20089;-73
2021/12/20 06:01:41;;;;;;;11.80;1.75;;;;;;;5.97;78.48;102838.66;5094441;28;20031;-73
2021/12/20 06:04:07;;;;;;;16.02;1.63;;;;;;;5.97;77.78;102842.97;5093078;28;20024;-73
2021/12/20 06:06:32;;;;;;;12.93;1.95;;;;;;;6.00;79.97;102843.56;5093213;28;20088;-73
2021/12/20 06:08:58;;;;;;;11.00;1.65;;;;;;;5.98;81.66;102847.16;5094299;28;20024;-73
2021/12/20 06:11:24;;;;;;;11.00;1.85;;;;;;;5.83;82.95;102837.00;5093002;28;20047;-73
2021/12/20 06:13:50;;;;;;;11.90;2.40;;;;;;;5.82;81.13;102850.75;5094216;28;20039;-73
2021/12/20 06:16:16;;;;;;;9.95;2.22;;;;;;;5.80;80.28;102839.78;5092948;28;20478;-73
2021/12/20 06:18:41;;;;;;;10.45;1.90;;;;;;;5.83;82.33;102838.75;5094060;28;20027;-73
2021/12/20 06:21:06;;;;;;;15.20;2.35;;;;;;;5.81;83.76;102845.72;5092825;28;20098;-73
2021/12/20 06:23:31;;;;;;;14.80;1.73;;;;;;;5.76;81.57;102852.94;5094127;28;20035;-73
2021/12/20 06:25:57;;;;;;;11.52;2.08;;;;;;;5.72;79.22;102848.91;5094126;28;20024;-73
2021/12/20 06:28:22;;;;;;;10.10;2.05;;;;;;;5.83;80.44;102857.53;5093982;28;20023;-73
2021/12/20 06:30:48;;;;;;;18.20;2.30;;;;;;;5.77;82.06;102847.69;5092670;28;20028;-73
2021/12/20 06:33:13;;;;;;;11.50;2.10;;;;;;;5.76;81.79;102856.31;5092629;28;20462;-73
2021/12/20 06:35:39;;;;;;;15.07;2.15;;;;;;;5.77;82.05;102860.50;5092712;28;20099;-72
2021/12/20 06:38:06;;;;;;;17.58;2.45;;;;;;;5.77;81.88;102860.50;5093877;28;20103;-72
2021/12/20 06:40:33;;;;;;;13.18;2.47;;;;;;;5.73;83.69;102859.09;5093585;28;20051;-73
2021/12/20 06:42:58;;;;;;;11.98;2.15;;;;;;;5.61;85.24;102863.31;5093778;28;20031;-73
2021/12/20 06:45:23;;;;;;;12.50;2.50;;;;;;;5.62;82.93;102853.88;5092408;28;20114;-73
2021/12/20 06:47:50;;;;;;;9.90;2.05;;;;;;;5.49;84.39;102864.09;5093716;28;20055;-73
2021/12/20 06:50:15;;;;;;;12.43;2.05;;;;;;;5.43;84.85;102861.97;5092246;28;20390;-73
2021/12/20 06:52:41;;;;;;;16.65;2.30;;;;;;;5.48;83.80;102866.78;5093855;28;20024;-73
2021/12/20 06:55:06;;;;;;;12.10;2.10;;;;;;;5.31;83.67;102862.78;5092283;28;20106;-73
2021/12/20 06:57:32;;;;;;;13.75;2.20;;;;;;;5.30;84.38;102869.66;5092821;28;20028;-73
2021/12/20 06:59:57;;;;;;;16.70;2.53;;;;;;;5.14;85.09;102869.81;5093450;28;20020;-73
2021/12/20 07:02:23;;;;;;;14.43;2.47;;;;;;;5.17;84.67;102863.69;5092183;28;20023;-73
2021/12/20 07:04:48;;;;;;;13.10;2.20;;;;;;;5.24;85.51;102871.81;5093462;28;20027;-73
2021/12/20 07:07:14;;;;;;;13.50;2.50;;;;;;;5.05;84.49;102874.75;5093449;28;20059;-73
2021/12/20 07:09:39;;;;;;;11.77;2.30;;;;;;;5.10;85.96;102877.84;5095129;28;20047;-73
2021/12/20 07:12:05;;;;;;;11.02;1.98;;;;;;;5.09;86.52;102878.72;5096417;28;20474;-72
2021/12/20 07:14:30;;;;;;;14.35;2.50;;;;;;;5.18;86.19;102875.59;5096479;28;20455;-72
2021/12/20 07:16:56;;;;;;;8.60;2.03;;;;;;;5.16;85.45;102890.25;5097565;28;20024;-73
2021/12/20 07:19:22;;;;;;;13.65;2.00;;;;;;;5.23;85.86;102885.53;5096989;28;20085;-74
2021/12/20 07:21:47;;;;;;;12.85;2.20;;;;;;;5.23;86.14;102882.97;5097146;28;20380;-75
2021/12/20 07:24:13;;;;;;;16.33;2.60;;;;;;;5.27;84.82;102887.00;5097461;28;20054;-73
2021/12/20 07:30:00;;;;;;;17.02;2.88;;;;;;;5.20;85.43;102882.25;5097549;28;20035;-74
2021/12/20 07:32:25;;;;;;;13.80;3.17;;;;;;;5.29;84.82;102885.13;5095975;28;20470;-73
2021/12/20 07:34:51;;;;;;;16.23;2.92;;;;;;;5.40;83.76;102885.25;5099905;28;20355;-74
2021/12/20 07:37:17;;;;;;;11.23;2.38;;;;;;;5.40;84.60;102885.25;5097650;28;20063;-74
2021/12/20 07:39:42;;;;;;;15.80;2.53;;;;;;;5.38;83.52;102875.09;5095964;28;20466;-73
2021/12/20 07:42:09;;;;;;;11.73;2.38;;;;;;;5.45;84.83;102890.91;5096842;28;20097;-73
2021/12/20 07:44:34;;;;;;;12.77;2.25;;;;;;;5.42;84.58;102886.78;5097307;28;20031;-72
2021/12/20 07:47:00;;;;;;;9.98;2.03;;;;;;;5.42;83.51;102888.53;5097410;28;20020;-74
2021/12/20 07:49:25;;;;;;;12.40;2.70;;;;;;;5.47;85.00;102890.78;5096077;28;20020;-74
2021/12/20 07:51:52;;;;;;;10.93;2.17;;;;;;;5.54;84.67;102890.28;5095600;28;20141;-74
2021/12/20 07:54:18;;;;;;;22.63;2.47;;;;;;;5.62;84.88;102885.47;5095447;28;20073;-74
2021/12/20 07:56:43;;;;;;;14.18;2.28;;;;;;;5.57;84.81;102884.13;5097217;28;20036;-74
2021/12/20 07:59:09;;;;;;;12.77;2.30;;;;;;;5.36;85.10;102876.94;5095223;28;20036;-74
2021/12/20 08:01:35;;;;;;;14.60;2.17;;;;;;;5.41;84.78;102874.91;5096597;28;20486;-74
2021/12/20 08:04:01;;;;;;;12.10;2.30;;;;;;;5.32;84.51;102880.63;5096637;28;20107;-74
2021/12/20 08:06:27;;;;;;;10.68;2.25;;;;;;;5.44;85.31;102886.69;5095207;28;20028;-75
2021/12/20 08:08:52;;;;;;;18.08;2.50;;;;;;;5.55;85.94;102880.84;5096525;28;20112;-74
2021/12/20 08:11:18;;;;;;;10.20;2.17;;;;;;;5.50;85.73;102881.16;5095106;28;20497;-74
2021/12/20 08:13:46;;;;;;;14.48;2.33;;;;;;;5.53;85.13;102886.09;5078210;28;20472;-74
2021/12/20 08:16:12;;;;;;;14.70;2.55;;;;;;;5.54;85.47;102887.72;5096556;28;20030;-74
2021/12/20 08:18:39;;;;;;;10.93;2.10;;;;;;;5.48;85.85;102889.88;5096478;28;20028;-75
2021/12/20 08:21:04;;;;;;;13.50;2.30;;;;;;;5.42;86.19;102886.78;5094439;28;20030;-75
2021/12/20 08:23:29;;;;;;;9.48;2.30;;;;;;;5.46;85.52;102896.84;5095068;28;20110;-74
2021/12/20 08:25:55;;;;;;;13.25;2.88;;;;;;;5.50;86.30;102891.41;5094957;28;20486;-75
2021/12/20 08:28:20;;;;;;;12.38;3.17;;;;;;;5.56;85.81;102895.31;5096170;28;20020;-73
2021/12/20 08:30:45;;;;;;;25.13;3.28;;;;;;;5.63;84.88;102902.47;5096199;28;20474;-75
2021/12/20 08:33:12;;;;;;;14.73;3.45;;;;;;;5.77;85.68;102905.88;5096144;28;20024;-73
2021/12/20 08:35:38;;;;;;;14.30;2.88;;;;;;;5.70;85.67;102908.03;5094854;28;20089;-73
2021/12/20 08:38:03;;;;;;;22.25;3.13;;;;;;;5.73;84.68;102895.00;5095988;28;20031;-73
2021/12/20 08:40:28;;;;;;;14.60;3.28;;;;;;;5.76;85.13;102905.06;5095904;28;20099;-74
2021/12/20 08:42:54;;;;;;;12.93;2.40;;;;;;;5.83;84.74;102906.28;5096422;28;20470;-78
2021/12/20 08:45:20;;;;;;;13.85;2.58;;;;;;;5.97;85.04;102905.38;5100294;28;20020;-76
2021/12/20 08:47:45;;;;;;;13.45;2.20;;;;;;;6.03;83.37;102909.28;5097134;28;20497;-76
2021/12/20 08:50:16;;;;;;;14.35;2.38;;;;;;;6.08;83.19;102912.34;5095610;28;20048;-73
2021/12/20 08:52:42;;;;;;;15.10;2.50;;;;;;;6.12;83.50;102910.38;5096197;28;20432;-73
2021/12/20 08:55:09;;;;;;;17.35;3.50;;;;;;;6.11;81.79;102909.56;5094499;28;20564;-74
2021/12/20 08:57:35;;;;;;;15.55;3.50;;;;;;;6.20;82.42;102919.22;5095739;28;20020;-73
2021/12/20 09:00:02;;;;;;;13.15;2.30;;;;;;;6.15;81.92;102912.75;5094306;28;20020;-73
2021/12/20 09:02:27;;;;;;;10.95;2.53;;;;;;;6.19;82.11;102912.44;5095485;28;20173;-73
2021/12/20 09:04:53;;;;;;;13.90;2.38;;;;;;;6.22;81.47;102906.28;5096257;28;20073;-73
2021/12/20 09:07:18;;;;;;;13.05;2.65;;;;;;;6.26;82.85;102916.22;5095866;28;20569;-74
2021/12/20 09:09:46;;;;;;;14.65;2.22;;;;;;;6.33;82.67;102916.63;5095366;28;20103;-73
2021/12/20 09:12:13;;;;;;;14.48;2.47;;;;;;;6.35;82.59;102921.63;5095538;28;20157;-73
2021/12/20 09:14:38;;;;;;;12.05;2.67;;;;;;;6.32;82.35;102915.78;5094406;28;20024;-73
2021/12/20 09:17:04;;;;;;;11.68;2.22;;;;;;;6.36;82.02;102920.69;5097180;28;20020;-74
2021/12/20 09:19:30;;;;;;;11.77;2.20;;;;;;;6.41;81.96;102929.72;5095772;28;20066;-73
2021/12/20 09:21:55;;;;;;;13.00;2.35;;;;;;;6.47;83.01;102937.03;5094365;28;20107;-72
2021/12/20 09:24:21;;;;;;;11.25;1.75;;;;;;;6.48;81.99;102930.97;5095372;28;20093;-73
2021/12/20 09:26:46;;;;;;;50.05;4.38;;;;;;;6.50;83.01;102930.84;5095577;28;20476;-73
2021/12/20 09:29:12;;;;;;;12.40;2.05;;;;;;;6.38;82.47;102911.97;5098071;28;20031;-73
2021/12/20 09:31:37;;;;;;;9.88;2.20;;;;;;;6.38;82.00;102926.56;5093824;28;20020;-73
2021/12/20 09:34:02;;;;;;;11.32;2.30;;;;;;;6.49;81.73;102934.34;5094674;28;20382;-75
2021/12/20 09:36:29;;;;;;;14.90;2.45;;;;;;;6.47;81.42;102936.19;5098468;28;20035;-75
2021/12/20 09:38:59;;;;;;;15.95;1.95;;;;;;;6.61;81.84;102925.78;5096496;28;20023;-76
2021/12/20 09:42:00;;;;;;;14.32;2.53;;;;;;;6.64;80.43;102940.16;5095969;28;20063;-74
2021/12/20 09:44:14;;;;;;;9.27;1.90;;;;;;;6.63;80.64;102944.47;5095167;28;20043;-74
2021/12/20 09:46:42;;;;;;;11.88;2.45;;;;;;;6.89;80.29;102928.97;5094659;28;20035;-75
2021/12/20 09:49:09;;;;;;;11.88;3.08;;;;;;;7.17;79.79;102943.22;5095044;28;20058;-75
2021/12/20 09:51:35;;;;;;;11.68;2.40;;;;;;;7.20;79.55;102948.13;5095228;28;20355;-72
2021/12/20 09:54:00;;;;;;;12.75;2.83;;;;;;;7.14;79.37;102949.41;5093757;28;20023;-73
2021/12/20 09:56:28;;;;;;;14.63;3.80;;;;;;;7.33;79.04;102948.06;5093674;28;20466;-73
2021/12/20 09:58:57;;;;;;;16.63;3.15;;;;;;;7.36;78.38;102940.09;5093590;28;20032;-74
2021/12/20 10:01:23;;;;;;;17.35;2.80;;;;;;;7.36;78.76;102955.53;5094794;28;20028;-74
2021/12/20 10:03:49;;;;;;;12.65;2.92;;;;;;;7.54;78.01;102949.06;5095102;28;20028;-73
2021/12/20 10:06:15;;;;;;;15.07;2.30;;;;;;;7.51;77.65;102946.72;5076757;28;20035;-73
2021/12/20 10:12:16;;;;;;;8.80;1.92;;;;;;;7.54;77.14;102946.47;5095007;28;20034;-73
2021/12/20 10:14:56;;;;;;;10.32;1.88;;;;;;;7.55;77.10;102944.72;5094429;28;20026;-74
2021/12/20 10:17:24;;;;;;;12.57;2.20;;;;;;;7.59;76.69;102943.56;5096784;28;20028;-75
2021/12/20 10:19:50;;;;;;;13.10;2.90;;;;;;;7.63;76.88;102945.78;5115593;22;20054;-65
2021/12/20 10:22:36;;;;;;;17.60;3.38;;;;;;;7.63;76.18;102952.69;5093652;22;20063;-39
2021/12/20 10:25:02;;;;;;;11.82;2.85;;;;;;;7.28;75.80;102932.13;5094137;28;20126;-38
2021/12/20 10:27:28;;;;;;;12.43;2.78;;;;;;;7.40;75.33;102959.53;5094376;28;20120;-37
2021/12/20 10:29:53;;;;;;;15.18;2.70;;;;;;;7.45;75.83;102958.28;5094040;28;20024;-37
2021/12/20 10:32:37;;;;;;;13.13;3.00;;;;;;;7.39;79.70;102955.31;5093953;28;20027;-37
2021/12/20 10:35:03;;;;;;;13.57;2.30;;;;;;;7.45;79.21;102949.72;5093930;28;20404;-38
2021/12/20 10:37:40;;;;;;;12.13;1.95;;;;;;;7.52;78.17;102953.50;5094087;28;20085;-39
2021/12/20 10:40:06;;;;;;;14.38;2.08;;;;;;;7.67;77.15;102954.09;5094050;28;20458;-37
2021/12/20 10:42:40;;;;;;;12.85;2.00;;;;;;;7.49;77.35;102955.47;5094085;28;20031;-38
2021/12/20 10:45:32;;;;;;;10.85;2.10;;;;;;;7.36;75.66;102958.09;5093969;28;20042;-38
2021/12/20 10:48:09;;;;;;;9.77;1.90;;;;;;;7.24;76.77;102910.97;5089014;28;20036;-37
2021/12/20 10:50:42;;;;;;;9.88;2.00;;;;;;;7.42;77.29;102953.34;5094080;28;20480;-37
2021/12/20 10:53:25;;;;;;;15.02;2.03;;;;;;;7.38;73.66;102948.53;5076887;28;20020;-38
2021/12/20 10:55:56;;;;;;;11.15;1.70;;;;;;;7.38;76.30;102949.34;5093669;28;20106;-38
2021/12/20 10:58:29;;;;;;;9.60;1.95;;;;;;;7.31;76.34;102942.19;5093836;28;20458;-38
2021/12/20 11:01:18;;;;;;;11.55;2.45;;;;;;;7.44;74.93;102938.59;5094021;28;20024;-38
2021/12/20 11:03:54;;;;;;;11.00;2.25;;;;;;;7.11;74.21;102946.25;5094243;28;20020;-38
2021/12/20 11:09:05;;;;;;;12.40;1.88;;;;;;;7.08;73.66;102929.28;5093132;28;20093;-39
2021/12/20 11:11:36;;;;;;;9.65;1.60;;;;;;;6.86;74.12;102912.00;5077923;28;20027;-40
2021/12/20 11:14:03;;;;;;;17.08;2.17;;;;;;;7.24;74.00;102940.06;5093147;28;20024;-39
2021/12/20 11:16:32;;;;;;;15.05;2.05;;;;;;;7.38;73.09;102945.97;5084849;28;20347;-39
2021/12/20 11:19:06;;;;;;;12.10;1.80;;;;;;;7.38;71.69;102943.41;5092803;28;20107;-39
2021/12/20 11:21:31;;;;;;;12.25;2.13;;;;;;;7.45;70.62;102947.13;5108010;28;20058;-39
2021/12/20 11:23:59;;;;;;;11.18;2.20;;;;;;;7.39;70.40;102943.28;5112405;28;20385;-38
2021/12/20 11:26:27;;;;;;;18.10;1.90;;;;;;;7.34;71.77;102942.81;5112411;28;20416;-38
2021/12/20 11:28:54;;;;;;;8.07;1.67;;;;;;;7.38;68.71;102943.41;5112236;28;20073;-38
2021/12/20 11:31:19;;;;;;;13.38;2.25;;;;;;;7.49;68.13;102946.00;5112388;28;20050;-37
2021/12/20 11:33:45;;;;;;;10.73;1.63;;;;;;;7.66;67.42;102934.44;5112441;28;20016;-37
2021/12/20 11:36:10;;;;;;;9.85;1.80;;;;;;;7.58;67.44;102934.19;5114195;28;20035;-37
2021/12/20 11:38:36;;;;;;;12.25;1.83;;;;;;;7.69;68.83;102937.59;5113384;28;20388;-38
2021/12/20 11:41:02;;;;;;;7.28;1.77;;;;;;;7.74;67.31;102931.28;5114094;28;20035;-37
2021/12/20 11:43:29;;;;;;;6.03;1.23;;;;;;;7.41;57.50;102932.88;5113759;28;20035;-38
2021/12/20 11:45:57;;;;;;;10.95;1.58;;;;;;;7.40;56.94;102921.78;5113345;28;20498;-37
2021/12/20 11:48:26;;;;;;;5.60;1.40;;;;;;;7.55;58.85;102924.13;5113241;28;20102;-37
2021/12/20 11:50:56;;;;;;;10.82;1.15;;;;;;;7.45;56.05;102927.41;5094857;28;20020;-38